sensor_id;sensor_type;location;lat;lon;timestamp;pressure;altitude;pressure_sealevel;temperature;humidity
16461;BME280;8341;42.048;24.650;2023-02-01T00:01:48;97317.06;;;3.95;61.17
16461;BME280;8341;42.048;24.650;2023-02-01T00:04:16;97325.41;;;4.00;60.87
16461;BME280;8341;42.048;24.650;2023-02-01T00:06:43;97324.72;;;3.96;61.14
16461;BME280;8341;42.048;24.650;2023-02-01T00:09:10;97323.22;;;3.95;61.69
16461;BME280;8341;42.048;24.650;2023-02-01T00:11:36;97324.31;;;3.98;60.36
16461;BME280;8341;42.048;24.650;2023-02-01T00:14:03;97326.06;;;4.04;61.12
16461;BME280;8341;42.048;24.650;2023-02-01T00:16:31;97330.88;;;3.97;61.11
16461;BME280;8341;42.048;24.650;2023-02-01T00:19:00;97325.03;;;3.98;61.02
16461;BME280;8341;42.048;24.650;2023-02-01T00:21:29;97334.03;;;3.95;61.44
16461;BME280;8341;42.048;24.650;2023-02-01T00:23:56;97326.66;;;3.96;60.45
16461;BME280;8341;42.048;24.650;2023-02-01T00:26:29;97327.63;;;3.89;61.25
16461;BME280;8341;42.048;24.650;2023-02-01T00:28:57;97327.63;;;3.89;60.02
16461;BME280;8341;42.048;24.650;2023-02-01T00:31:24;97327.19;;;3.91;61.37
16461;BME280;8341;42.048;24.650;2023-02-01T00:33:51;97325.25;;;3.91;60.22
16461;BME280;8341;42.048;24.650;2023-02-01T00:36:18;97322.88;;;3.93;61.02
16461;BME280;8341;42.048;24.650;2023-02-01T00:38:46;97316.38;;;3.91;61.27
16461;BME280;8341;42.048;24.650;2023-02-01T00:41:14;97329.47;;;3.92;60.94
16461;BME280;8341;42.048;24.650;2023-02-01T00:43:42;97320.38;;;3.86;60.61
16461;BME280;8341;42.048;24.650;2023-02-01T00:46:10;97313.38;;;3.89;61.11
16461;BME280;8341;42.048;24.650;2023-02-01T00:48:37;97335.94;;;3.95;61.13
16461;BME280;8341;42.048;24.650;2023-02-01T00:51:05;97335.72;;;3.89;60.65
16461;BME280;8341;42.048;24.650;2023-02-01T00:53:33;97326.59;;;3.83;61.03
16461;BME280;8341;42.048;24.650;2023-02-01T00:56:02;97329.88;;;3.91;60.57
16461;BME280;8341;42.048;24.650;2023-02-01T00:58:30;97333.44;;;3.88;60.32
16461;BME280;8341;42.048;24.650;2023-02-01T01:01:02;97331.06;;;3.90;60.85
16461;BME280;8341;42.048;24.650;2023-02-01T01:03:29;97326.09;;;3.88;60.59
16461;BME280;8341;42.048;24.650;2023-02-01T01:06:00;97327.44;;;3.80;61.05
16461;BME280;8341;42.048;24.650;2023-02-01T01:08:27;97332.84;;;3.80;61.11
16461;BME280;8341;42.048;24.650;2023-02-01T01:10:53;97329.16;;;3.74;61.17
16461;BME280;8341;42.048;24.650;2023-02-01T01:13:22;97307.78;;;3.67;61.14
16461;BME280;8341;42.048;24.650;2023-02-01T01:15:49;97320.75;;;3.72;61.46
16461;BME280;8341;42.048;24.650;2023-02-01T01:18:15;97323.97;;;3.67;61.36
16461;BME280;8341;42.048;24.650;2023-02-01T01:20:42;97313.19;;;3.67;61.82
16461;BME280;8341;42.048;24.650;2023-02-01T01:23:09;97318.72;;;3.60;62.42
16461;BME280;8341;42.048;24.650;2023-02-01T01:25:37;97325.00;;;3.57;61.99
16461;BME280;8341;42.048;24.650;2023-02-01T01:28:04;97322.94;;;3.61;61.62
16461;BME280;8341;42.048;24.650;2023-02-01T01:30:33;97328.84;;;3.56;62.28
16461;BME280;8341;42.048;24.650;2023-02-01T01:33:00;97326.66;;;3.51;62.04
16461;BME280;8341;42.048;24.650;2023-02-01T01:35:28;97323.13;;;3.54;61.91
16461;BME280;8341;42.048;24.650;2023-02-01T01:37:55;97322.03;;;3.51;62.40
16461;BME280;8341;42.048;24.650;2023-02-01T01:40:22;97326.16;;;3.40;63.10
16461;BME280;8341;42.048;24.650;2023-02-01T01:42:49;97321.59;;;3.37;62.54
16461;BME280;8341;42.048;24.650;2023-02-01T01:45:23;97322.38;;;3.37;62.76
16461;BME280;8341;42.048;24.650;2023-02-01T01:47:53;97324.16;;;3.28;63.54
16461;BME280;8341;42.048;24.650;2023-02-01T01:50:23;97334.41;;;3.33;63.39
16461;BME280;8341;42.048;24.650;2023-02-01T01:52:52;97324.06;;;3.31;63.21
16461;BME280;8341;42.048;24.650;2023-02-01T01:55:22;97329.88;;;3.30;63.43
16461;BME280;8341;42.048;24.650;2023-02-01T01:57:55;97331.81;;;3.29;63.47
16461;BME280;8341;42.048;24.650;2023-02-01T02:00:24;97325.69;;;3.29;64.15
16461;BME280;8341;42.048;24.650;2023-02-01T02:02:57;97323.31;;;3.31;64.12
16461;BME280;8341;42.048;24.650;2023-02-01T02:05:25;97323.47;;;3.40;63.38
16461;BME280;8341;42.048;24.650;2023-02-01T02:07:58;97312.28;;;3.41;63.21
16461;BME280;8341;42.048;24.650;2023-02-01T02:10:26;97326.34;;;3.49;63.55
16461;BME280;8341;42.048;24.650;2023-02-01T02:13:14;97329.44;;;3.47;63.94
16461;BME280;8341;42.048;24.650;2023-02-01T02:15:45;97325.97;;;3.47;64.29
16461;BME280;8341;42.048;24.650;2023-02-01T02:18:19;97319.94;;;3.43;64.16
16461;BME280;8341;42.048;24.650;2023-02-01T02:21:09;97317.56;;;3.45;64.17
16461;BME280;8341;42.048;24.650;2023-02-01T02:24:09;97323.63;;;3.49;64.56
16461;BME280;8341;42.048;24.650;2023-02-01T02:27:00;97316.06;;;3.44;64.38
16461;BME280;8341;42.048;24.650;2023-02-01T02:29:49;97319.28;;;3.39;64.88
16461;BME280;8341;42.048;24.650;2023-02-01T02:35:38;97312.78;;;3.36;65.08
16461;BME280;8341;42.048;24.650;2023-02-01T02:38:15;97329.47;;;3.31;65.57
16461;BME280;8341;42.048;24.650;2023-02-01T02:40:49;97329.53;;;3.28;65.82
16461;BME280;8341;42.048;24.650;2023-02-01T02:43:22;97326.78;;;3.31;65.93
16461;BME280;8341;42.048;24.650;2023-02-01T02:46:14;97335.44;;;3.39;66.04
16461;BME280;8341;42.048;24.650;2023-02-01T02:49:01;97333.91;;;3.38;66.50
16461;BME280;8341;42.048;24.650;2023-02-01T02:51:35;97335.19;;;3.33;66.23
16461;BME280;8341;42.048;24.650;2023-02-01T02:54:24;97338.53;;;3.37;66.51
16461;BME280;8341;42.048;24.650;2023-02-01T02:57:13;97322.13;;;3.32;66.13
16461;BME280;8341;42.048;24.650;2023-02-01T03:00:00;97323.22;;;3.34;66.40
16461;BME280;8341;42.048;24.650;2023-02-01T03:02:46;97314.22;;;3.41;66.37
16461;BME280;8341;42.048;24.650;2023-02-01T03:05:33;97328.59;;;3.34;66.88
16461;BME280;8341;42.048;24.650;2023-02-01T03:08:10;97336.47;;;3.29;67.05
16461;BME280;8341;42.048;24.650;2023-02-01T03:10:47;97321.88;;;3.26;67.53
16461;BME280;8341;42.048;24.650;2023-02-01T03:13:20;97323.31;;;3.31;67.03
16461;BME280;8341;42.048;24.650;2023-02-01T03:15:56;97321.59;;;3.37;66.87
16461;BME280;8341;42.048;24.650;2023-02-01T03:18:29;97312.94;;;3.29;66.92
16461;BME280;8341;42.048;24.650;2023-02-01T03:21:01;97334.56;;;3.42;66.79
16461;BME280;8341;42.048;24.650;2023-02-01T03:23:33;97332.06;;;3.35;67.71
16461;BME280;8341;42.048;24.650;2023-02-01T03:26:04;97334.50;;;3.29;67.13
16461;BME280;8341;42.048;24.650;2023-02-01T03:28:34;97331.06;;;3.29;67.85
16461;BME280;8341;42.048;24.650;2023-02-01T03:31:02;97337.94;;;3.30;68.16
16461;BME280;8341;42.048;24.650;2023-02-01T03:33:30;97338.47;;;3.41;67.53
16461;BME280;8341;42.048;24.650;2023-02-01T03:36:03;97340.75;;;3.26;67.96
16461;BME280;8341;42.048;24.650;2023-02-01T03:38:38;97332.75;;;3.23;67.91
16461;BME280;8341;42.048;24.650;2023-02-01T03:41:11;97332.91;;;3.15;68.93
16461;BME280;8341;42.048;24.650;2023-02-01T03:43:46;97335.25;;;3.13;68.52
16461;BME280;8341;42.048;24.650;2023-02-01T03:46:25;97316.72;;;2.99;69.07
16461;BME280;8341;42.048;24.650;2023-02-01T03:48:53;97330.03;;;3.06;68.74
16461;BME280;8341;42.048;24.650;2023-02-01T03:51:22;97340.03;;;3.06;68.79
16461;BME280;8341;42.048;24.650;2023-02-01T03:53:52;97328.53;;;3.05;69.01
16461;BME280;8341;42.048;24.650;2023-02-01T03:56:21;97338.03;;;3.10;68.36
16461;BME280;8341;42.048;24.650;2023-02-01T03:58:49;97339.81;;;3.16;68.32
16461;BME280;8341;42.048;24.650;2023-02-01T04:01:25;97335.94;;;3.17;67.66
16461;BME280;8341;42.048;24.650;2023-02-01T04:03:53;97333.41;;;3.10;68.06
16461;BME280;8341;42.048;24.650;2023-02-01T04:06:19;97344.09;;;3.14;67.92
16461;BME280;8341;42.048;24.650;2023-02-01T04:08:46;97339.91;;;3.13;68.29
16461;BME280;8341;42.048;24.650;2023-02-01T04:11:15;97343.16;;;3.04;68.09
16461;BME280;8341;42.048;24.650;2023-02-01T04:13:42;97346.97;;;3.07;67.91
16461;BME280;8341;42.048;24.650;2023-02-01T04:16:09;97347.28;;;3.09;68.36
16461;BME280;8341;42.048;24.650;2023-02-01T04:18:36;97346.03;;;2.97;68.78
16461;BME280;8341;42.048;24.650;2023-02-01T04:21:03;97363.28;;;3.00;67.91
16461;BME280;8341;42.048;24.650;2023-02-01T04:23:30;97370.66;;;2.96;67.84
16461;BME280;8341;42.048;24.650;2023-02-01T04:26:01;97373.84;;;2.91;68.34
16461;BME280;8341;42.048;24.650;2023-02-01T04:28:30;97377.31;;;2.91;67.92
16461;BME280;8341;42.048;24.650;2023-02-01T04:30:57;97376.66;;;2.87;66.30
16461;BME280;8341;42.048;24.650;2023-02-01T04:33:24;97364.69;;;2.88;65.61
16461;BME280;8341;42.048;24.650;2023-02-01T04:35:50;97382.84;;;2.84;65.50
16461;BME280;8341;42.048;24.650;2023-02-01T04:38:18;97380.50;;;2.86;64.53
16461;BME280;8341;42.048;24.650;2023-02-01T04:40:47;97382.84;;;2.84;64.17
16461;BME280;8341;42.048;24.650;2023-02-01T04:43:14;97386.72;;;2.83;64.02
16461;BME280;8341;42.048;24.650;2023-02-01T04:45:46;97357.59;;;2.78;63.81
16461;BME280;8341;42.048;24.650;2023-02-01T04:48:13;97368.06;;;2.92;63.57
16461;BME280;8341;42.048;24.650;2023-02-01T04:50:40;97377.97;;;2.95;62.81
16461;BME280;8341;42.048;24.650;2023-02-01T04:53:07;97385.22;;;2.98;62.79
16461;BME280;8341;42.048;24.650;2023-02-01T04:55:33;97388.19;;;3.04;62.83
16461;BME280;8341;42.048;24.650;2023-02-01T04:58:00;97384.75;;;3.03;62.01
16461;BME280;8341;42.048;24.650;2023-02-01T05:00:27;97377.84;;;3.02;61.99
16461;BME280;8341;42.048;24.650;2023-02-01T05:02:55;97381.47;;;3.12;61.87
16461;BME280;8341;42.048;24.650;2023-02-01T05:05:22;97377.59;;;2.97;61.58
16461;BME280;8341;42.048;24.650;2023-02-01T05:07:49;97391.50;;;3.11;61.65
16461;BME280;8341;42.048;24.650;2023-02-01T05:10:16;97391.91;;;3.10;61.00
16461;BME280;8341;42.048;24.650;2023-02-01T05:12:43;97385.44;;;3.07;60.12
16461;BME280;8341;42.048;24.650;2023-02-01T05:15:27;97393.69;;;3.16;59.60
16461;BME280;8341;42.048;24.650;2023-02-01T05:17:56;97397.16;;;3.17;59.02
16461;BME280;8341;42.048;24.650;2023-02-01T05:20:23;97389.41;;;3.19;58.86
16461;BME280;8341;42.048;24.650;2023-02-01T05:22:50;97381.91;;;3.27;59.51
16461;BME280;8341;42.048;24.650;2023-02-01T05:25:17;97380.75;;;3.28;58.61
16461;BME280;8341;42.048;24.650;2023-02-01T05:27:44;97386.13;;;3.28;58.28
16461;BME280;8341;42.048;24.650;2023-02-01T05:30:11;97379.06;;;3.34;58.98
16461;BME280;8341;42.048;24.650;2023-02-01T05:32:38;97379.56;;;3.45;58.06
16461;BME280;8341;42.048;24.650;2023-02-01T05:35:08;97374.88;;;3.49;57.64
16461;BME280;8341;42.048;24.650;2023-02-01T05:37:34;97366.25;;;3.38;58.20
16461;BME280;8341;42.048;24.650;2023-02-01T05:40:01;97380.75;;;3.44;58.07
16461;BME280;8341;42.048;24.650;2023-02-01T05:42:28;97376.03;;;3.48;57.93
16461;BME280;8341;42.048;24.650;2023-02-01T05:44:55;97375.44;;;3.56;57.14
16461;BME280;8341;42.048;24.650;2023-02-01T05:47:22;97379.75;;;3.54;56.67
16461;BME280;8341;42.048;24.650;2023-02-01T05:49:49;97386.81;;;3.48;56.42
16461;BME280;8341;42.048;24.650;2023-02-01T05:52:17;97381.59;;;3.57;56.29
16461;BME280;8341;42.048;24.650;2023-02-01T05:54:44;97379.91;;;3.63;55.72
16461;BME280;8341;42.048;24.650;2023-02-01T05:57:12;97373.91;;;3.71;56.54
16461;BME280;8341;42.048;24.650;2023-02-01T05:59:39;97394.28;;;3.72;55.60
16461;BME280;8341;42.048;24.650;2023-02-01T06:02:10;97386.50;;;3.62;55.49
16461;BME280;8341;42.048;24.650;2023-02-01T06:04:36;97390.59;;;3.66;54.95
16461;BME280;8341;42.048;24.650;2023-02-01T06:07:05;97395.50;;;3.71;54.53
16461;BME280;8341;42.048;24.650;2023-02-01T06:09:33;97382.78;;;3.56;55.37
16461;BME280;8341;42.048;24.650;2023-02-01T06:12:00;97391.19;;;3.74;53.89
16461;BME280;8341;42.048;24.650;2023-02-01T06:14:27;97396.78;;;3.67;54.53
16461;BME280;8341;42.048;24.650;2023-02-01T06:16:54;97394.06;;;3.67;53.81
16461;BME280;8341;42.048;24.650;2023-02-01T06:19:21;97404.81;;;3.83;53.59
16461;BME280;8341;42.048;24.650;2023-02-01T06:21:48;97400.72;;;3.78;52.97
16461;BME280;8341;42.048;24.650;2023-02-01T06:24:15;97406.78;;;3.83;52.77
16461;BME280;8341;42.048;24.650;2023-02-01T06:26:43;97396.75;;;3.83;52.97
16461;BME280;8341;42.048;24.650;2023-02-01T06:29:10;97404.06;;;3.99;52.28
16461;BME280;8341;42.048;24.650;2023-02-01T06:31:37;97404.81;;;3.99;51.14
16461;BME280;8341;42.048;24.650;2023-02-01T06:34:05;97407.69;;;4.08;51.52
16461;BME280;8341;42.048;24.650;2023-02-01T06:36:31;97392.34;;;4.05;50.94
16461;BME280;8341;42.048;24.650;2023-02-01T06:38:58;97405.78;;;4.21;50.80
16461;BME280;8341;42.048;24.650;2023-02-01T06:41:25;97418.09;;;4.22;50.75
16461;BME280;8341;42.048;24.650;2023-02-01T06:43:54;97408.38;;;4.25;50.03
16461;BME280;8341;42.048;24.650;2023-02-01T06:46:21;97413.59;;;4.32;50.05
16461;BME280;8341;42.048;24.650;2023-02-01T06:48:48;97415.25;;;4.42;49.96
16461;BME280;8341;42.048;24.650;2023-02-01T06:51:19;97421.53;;;4.39;50.21
16461;BME280;8341;42.048;24.650;2023-02-01T06:53:47;97417.63;;;4.40;50.83
16461;BME280;8341;42.048;24.650;2023-02-01T06:56:13;97417.94;;;4.42;50.53
16461;BME280;8341;42.048;24.650;2023-02-01T06:58:40;97407.59;;;4.40;49.64
16461;BME280;8341;42.048;24.650;2023-02-01T07:01:09;97407.84;;;4.46;50.14
16461;BME280;8341;42.048;24.650;2023-02-01T07:03:36;97415.59;;;4.44;49.84
16461;BME280;8341;42.048;24.650;2023-02-01T07:06:04;97418.75;;;4.55;50.29
16461;BME280;8341;42.048;24.650;2023-02-01T07:08:33;97416.34;;;4.44;50.45
16461;BME280;8341;42.048;24.650;2023-02-01T07:11:01;97418.75;;;4.55;50.12
16461;BME280;8341;42.048;24.650;2023-02-01T07:13:28;97414.88;;;4.56;49.97
16461;BME280;8341;42.048;24.650;2023-02-01T07:15:58;97417.59;;;4.56;50.40
16461;BME280;8341;42.048;24.650;2023-02-01T07:18:26;97425.00;;;4.52;50.06
16461;BME280;8341;42.048;24.650;2023-02-01T07:20:53;97412.56;;;4.42;50.07
16461;BME280;8341;42.048;24.650;2023-02-01T07:23:20;97428.63;;;4.62;50.42
16461;BME280;8341;42.048;24.650;2023-02-01T07:25:47;97452.41;;;4.67;50.06
16461;BME280;8341;42.048;24.650;2023-02-01T07:28:14;97424.63;;;4.66;50.75
16461;BME280;8341;42.048;24.650;2023-02-01T07:30:41;97440.75;;;4.70;49.32
16461;BME280;8341;42.048;24.650;2023-02-01T07:33:08;97439.59;;;4.83;48.86
16461;BME280;8341;42.048;24.650;2023-02-01T07:35:36;97445.97;;;4.77;49.79
16461;BME280;8341;42.048;24.650;2023-02-01T07:38:02;97443.88;;;4.68;50.12
16461;BME280;8341;42.048;24.650;2023-02-01T07:40:29;97446.59;;;4.81;50.41
16461;BME280;8341;42.048;24.650;2023-02-01T07:42:56;97449.16;;;5.00;50.36
16461;BME280;8341;42.048;24.650;2023-02-01T07:45:24;97448.78;;;4.86;49.78
16461;BME280;8341;42.048;24.650;2023-02-01T07:47:52;97443.94;;;4.93;49.96
16461;BME280;8341;42.048;24.650;2023-02-01T07:50:19;97440.81;;;4.95;49.88
16461;BME280;8341;42.048;24.650;2023-02-01T07:52:47;97444.94;;;5.12;49.69
16461;BME280;8341;42.048;24.650;2023-02-01T07:55:14;97461.94;;;5.13;50.00
16461;BME280;8341;42.048;24.650;2023-02-01T07:57:41;97454.69;;;5.22;49.75
16461;BME280;8341;42.048;24.650;2023-02-01T08:00:09;97466.16;;;5.26;49.43
16461;BME280;8341;42.048;24.650;2023-02-01T08:02:54;97459.47;;;5.31;49.24
16461;BME280;8341;42.048;24.650;2023-02-01T08:05:20;97465.50;;;5.22;50.12
16461;BME280;8341;42.048;24.650;2023-02-01T08:07:50;97469.59;;;5.27;50.55
16461;BME280;8341;42.048;24.650;2023-02-01T08:10:18;97460.59;;;5.04;50.39
16461;BME280;8341;42.048;24.650;2023-02-01T08:12:45;97464.19;;;5.14;50.45
16461;BME280;8341;42.048;24.650;2023-02-01T08:15:14;97457.38;;;5.22;50.22
16461;BME280;8341;42.048;24.650;2023-02-01T08:17:46;97459.88;;;5.29;50.32
16461;BME280;8341;42.048;24.650;2023-02-01T08:20:13;97464.31;;;5.23;50.49
16461;BME280;8341;42.048;24.650;2023-02-01T08:22:40;97472.22;;;5.30;51.00
16461;BME280;8341;42.048;24.650;2023-02-01T08:25:09;97481.31;;;5.36;50.15
16461;BME280;8341;42.048;24.650;2023-02-01T08:27:37;97480.25;;;5.46;51.17
16461;BME280;8341;42.048;24.650;2023-02-01T08:30:05;97479.59;;;5.42;51.14
16461;BME280;8341;42.048;24.650;2023-02-01T08:32:33;97477.09;;;5.48;50.91
16461;BME280;8341;42.048;24.650;2023-02-01T08:35:00;97487.16;;;5.60;50.47
16461;BME280;8341;42.048;24.650;2023-02-01T08:37:26;97475.16;;;5.61;50.65
16461;BME280;8341;42.048;24.650;2023-02-01T08:39:53;97489.22;;;5.56;50.39
16461;BME280;8341;42.048;24.650;2023-02-01T08:42:21;97475.25;;;5.57;49.04
16461;BME280;8341;42.048;24.650;2023-02-01T08:45:06;97469.84;;;5.57;49.39
16461;BME280;8341;42.048;24.650;2023-02-01T08:47:34;97478.09;;;5.66;49.06
16461;BME280;8341;42.048;24.650;2023-02-01T08:50:01;97484.50;;;5.85;48.94
16461;BME280;8341;42.048;24.650;2023-02-01T08:52:28;97478.41;;;5.68;49.78
16461;BME280;8341;42.048;24.650;2023-02-01T08:54:55;97472.91;;;5.85;49.05
16461;BME280;8341;42.048;24.650;2023-02-01T08:57:23;97469.00;;;5.86;48.96
16461;BME280;8341;42.048;24.650;2023-02-01T08:59:50;97473.53;;;5.89;48.78
16461;BME280;8341;42.048;24.650;2023-02-01T09:02:17;97466.81;;;5.93;49.20
16461;BME280;8341;42.048;24.650;2023-02-01T09:04:44;97471.44;;;6.18;48.58
16461;BME280;8341;42.048;24.650;2023-02-01T09:07:11;97473.16;;;6.24;48.22
16461;BME280;8341;42.048;24.650;2023-02-01T09:09:38;97473.22;;;6.46;48.01
16461;BME280;8341;42.048;24.650;2023-02-01T09:12:05;97475.25;;;6.55;48.57
16461;BME280;8341;42.048;24.650;2023-02-01T09:14:34;97470.47;;;6.59;47.60
16461;BME280;8341;42.048;24.650;2023-02-01T09:17:00;97471.84;;;6.63;47.46
16461;BME280;8341;42.048;24.650;2023-02-01T09:19:27;97454.56;;;6.48;48.13
16461;BME280;8341;42.048;24.650;2023-02-01T09:21:54;97468.88;;;6.49;48.25
16461;BME280;8341;42.048;24.650;2023-02-01T09:24:21;97459.09;;;6.51;49.00
16461;BME280;8341;42.048;24.650;2023-02-01T09:26:48;97458.09;;;6.36;48.86
16461;BME280;8341;42.048;24.650;2023-02-01T09:29:15;97446.56;;;6.10;49.14
16461;BME280;8341;42.048;24.650;2023-02-01T09:31:43;97453.91;;;6.10;50.42
16461;BME280;8341;42.048;24.650;2023-02-01T09:34:10;97445.81;;;6.10;50.14
16461;BME280;8341;42.048;24.650;2023-02-01T09:36:37;97431.28;;;6.04;50.05
16461;BME280;8341;42.048;24.650;2023-02-01T09:39:04;97444.66;;;5.98;50.54
16461;BME280;8341;42.048;24.650;2023-02-01T09:41:38;97432.28;;;5.97;50.85
16461;BME280;8341;42.048;24.650;2023-02-01T09:44:21;97418.09;;;6.06;50.85
16461;BME280;8341;42.048;24.650;2023-02-01T09:46:54;97429.78;;;6.03;50.34
16461;BME280;8341;42.048;24.650;2023-02-01T09:49:27;97426.91;;;6.19;50.00
16461;BME280;8341;42.048;24.650;2023-02-01T09:51:55;97437.03;;;6.40;50.17
16461;BME280;8341;42.048;24.650;2023-02-01T09:54:25;97427.66;;;6.75;50.17
16461;BME280;8341;42.048;24.650;2023-02-01T09:56:56;97429.41;;;7.13;47.74
16461;BME280;8341;42.048;24.650;2023-02-01T09:59:31;97434.25;;;7.18;47.51
16461;BME280;8341;42.048;24.650;2023-02-01T10:02:03;97428.34;;;7.41;47.33
16461;BME280;8341;42.048;24.650;2023-02-01T10:04:31;97428.63;;;7.83;47.06
16461;BME280;8341;42.048;24.650;2023-02-01T10:07:09;97435.50;;;8.24;46.05
16461;BME280;8341;42.048;24.650;2023-02-01T10:09:46;97437.66;;;8.47;46.49
16461;BME280;8341;42.048;24.650;2023-02-01T10:15:28;97437.66;;;8.47;44.96
16461;BME280;8341;42.048;24.650;2023-02-01T10:18:14;97427.84;;;8.31;44.81
16461;BME280;8341;42.048;24.650;2023-02-01T10:20:52;97428.84;;;8.15;45.66
16461;BME280;8341;42.048;24.650;2023-02-01T10:23:32;97408.00;;;8.12;45.17
16461;BME280;8341;42.048;24.650;2023-02-01T10:26:11;97407.97;;;7.85;46.46
16461;BME280;8341;42.048;24.650;2023-02-01T10:28:41;97404.34;;;7.70;47.43
16461;BME280;8341;42.048;24.650;2023-02-01T10:31:08;97387.94;;;7.34;47.54
16461;BME280;8341;42.048;24.650;2023-02-01T10:33:42;97414.13;;;7.28;47.99
16461;BME280;8341;42.048;24.650;2023-02-01T10:36:15;97391.09;;;7.02;48.01
16461;BME280;8341;42.048;24.650;2023-02-01T10:38:43;97410.31;;;6.94;49.42
16461;BME280;8341;42.048;24.650;2023-02-01T10:41:13;97387.00;;;6.97;49.63
16461;BME280;8341;42.048;24.650;2023-02-01T10:43:41;97386.19;;;7.18;49.59
16461;BME280;8341;42.048;24.650;2023-02-01T10:46:09;97369.25;;;7.36;48.57
16461;BME280;8341;42.048;24.650;2023-02-01T10:48:38;97381.09;;;7.69;48.15
16461;BME280;8341;42.048;24.650;2023-02-01T10:51:08;97378.38;;;7.78;48.09
16461;BME280;8341;42.048;24.650;2023-02-01T10:53:41;97368.59;;;7.72;47.54
16461;BME280;8341;42.048;24.650;2023-02-01T10:56:10;97375.06;;;7.83;47.32
16461;BME280;8341;42.048;24.650;2023-02-01T10:58:44;97363.63;;;7.79;47.31
16461;BME280;8341;42.048;24.650;2023-02-01T11:01:17;97367.09;;;7.89;48.40
16461;BME280;8341;42.048;24.650;2023-02-01T11:03:52;97381.59;;;8.04;46.44
16461;BME280;8341;42.048;24.650;2023-02-01T11:06:26;97369.66;;;8.01;46.04
16461;BME280;8341;42.048;24.650;2023-02-01T11:08:55;97358.88;;;8.29;47.33
16461;BME280;8341;42.048;24.650;2023-02-01T11:11:24;97349.31;;;8.51;46.69
16461;BME280;8341;42.048;24.650;2023-02-01T11:13:53;97354.88;;;8.66;45.94
16461;BME280;8341;42.048;24.650;2023-02-01T11:16:20;97328.66;;;8.36;45.91
16461;BME280;8341;42.048;24.650;2023-02-01T11:18:53;97342.22;;;8.54;45.98
16461;BME280;8341;42.048;24.650;2023-02-01T11:21:21;97339.47;;;8.72;46.21
16461;BME280;8341;42.048;24.650;2023-02-01T11:23:48;97333.53;;;8.92;45.82
16461;BME280;8341;42.048;24.650;2023-02-01T11:26:22;97323.00;;;8.75;45.70
16461;BME280;8341;42.048;24.650;2023-02-01T11:28:56;97333.75;;;8.70;45.81
16461;BME280;8341;42.048;24.650;2023-02-01T11:31:24;97318.88;;;8.89;45.46
16461;BME280;8341;42.048;24.650;2023-02-01T11:33:57;97331.94;;;8.67;45.07
16461;BME280;8341;42.048;24.650;2023-02-01T11:36:28;97332.13;;;8.96;45.64
16461;BME280;8341;42.048;24.650;2023-02-01T11:39:09;97324.84;;;9.11;45.32
16461;BME280;8341;42.048;24.650;2023-02-01T11:41:41;97339.50;;;9.14;45.36
16461;BME280;8341;42.048;24.650;2023-02-01T11:44:20;97334.06;;;9.14;44.24
16461;BME280;8341;42.048;24.650;2023-02-01T11:46:47;97322.28;;;9.08;44.17
16461;BME280;8341;42.048;24.650;2023-02-01T11:49:20;97328.22;;;9.30;43.60
16461;BME280;8341;42.048;24.650;2023-02-01T11:51:56;97322.34;;;9.31;43.28
16461;BME280;8341;42.048;24.650;2023-02-01T11:54:39;97314.84;;;9.17;43.99
16461;BME280;8341;42.048;24.650;2023-02-01T12:00:16;97311.06;;;9.15;44.14
16461;BME280;8341;42.048;24.650;2023-02-01T12:03:03;97328.16;;;9.15;44.20
16461;BME280;8341;42.048;24.650;2023-02-01T12:05:40;97312.75;;;9.12;44.04
16461;BME280;8341;42.048;24.650;2023-02-01T12:08:23;97314.00;;;9.02;45.06
16461;BME280;8341;42.048;24.650;2023-02-01T12:11:03;97324.53;;;9.09;44.17
16461;BME280;8341;42.048;24.650;2023-02-01T12:13:44;97329.91;;;9.27;43.38
16461;BME280;8341;42.048;24.650;2023-02-01T12:16:22;97323.72;;;9.27;43.96
16461;BME280;8341;42.048;24.650;2023-02-01T12:19:17;97320.13;;;9.21;45.14
16461;BME280;8341;42.048;24.650;2023-02-01T12:21:54;97319.50;;;9.17;44.08
16461;BME280;8341;42.048;24.650;2023-02-01T12:27:41;97301.00;;;9.30;43.44
16461;BME280;8341;42.048;24.650;2023-02-01T12:33:09;97281.22;;;8.97;43.20
16461;BME280;8341;42.048;24.650;2023-02-01T12:35:51;97295.50;;;9.15;42.75
16461;BME280;8341;42.048;24.650;2023-02-01T12:38:43;97282.78;;;9.21;43.64
16461;BME280;8341;42.048;24.650;2023-02-01T12:41:34;97283.66;;;9.27;42.81
16461;BME280;8341;42.048;24.650;2023-02-01T12:44:04;97288.38;;;9.18;42.83
16461;BME280;8341;42.048;24.650;2023-02-01T12:46:41;97281.00;;;9.09;42.39
16461;BME280;8341;42.048;24.650;2023-02-01T12:49:13;97289.22;;;9.00;42.82
16461;BME280;8341;42.048;24.650;2023-02-01T12:51:44;97279.13;;;8.92;44.10
16461;BME280;8341;42.048;24.650;2023-02-01T12:54:18;97278.69;;;8.93;43.38
16461;BME280;8341;42.048;24.650;2023-02-01T12:56:49;97276.25;;;8.95;44.58
16461;BME280;8341;42.048;24.650;2023-02-01T12:59:25;97296.25;;;8.83;42.87
16461;BME280;8341;42.048;24.650;2023-02-01T13:01:56;97301.97;;;8.85;42.64
16461;BME280;8341;42.048;24.650;2023-02-01T13:04:32;97291.72;;;8.80;43.94
16461;BME280;8341;42.048;24.650;2023-02-01T13:07:07;97291.78;;;8.53;44.98
16461;BME280;8341;42.048;24.650;2023-02-01T13:09:41;97299.31;;;8.58;45.03
16461;BME280;8341;42.048;24.650;2023-02-01T13:12:13;97300.78;;;8.77;45.40
16461;BME280;8341;42.048;24.650;2023-02-01T13:14:44;97305.56;;;8.91;44.58
16461;BME280;8341;42.048;24.650;2023-02-01T13:17:16;97297.59;;;8.88;45.26
16461;BME280;8341;42.048;24.650;2023-02-01T13:19:49;97311.81;;;8.82;44.56
16461;BME280;8341;42.048;24.650;2023-02-01T13:22:23;97307.41;;;8.85;43.73
16461;BME280;8341;42.048;24.650;2023-02-01T13:24:56;97307.97;;;8.98;45.56
16461;BME280;8341;42.048;24.650;2023-02-01T13:27:26;97305.81;;;9.11;44.26
16461;BME280;8341;42.048;24.650;2023-02-01T13:29:57;97321.03;;;9.18;44.51
16461;BME280;8341;42.048;24.650;2023-02-01T13:32:53;97315.25;;;8.92;42.63
16461;BME280;8341;42.048;24.650;2023-02-01T13:35:33;97324.22;;;8.65;41.97
16461;BME280;8341;42.048;24.650;2023-02-01T13:38:54;97316.91;;;8.90;42.79
16461;BME280;8341;42.048;24.650;2023-02-01T13:41:31;97306.94;;;8.96;43.03
16461;BME280;8341;42.048;24.650;2023-02-01T13:44:03;97309.47;;;8.99;41.12
16461;BME280;8341;42.048;24.650;2023-02-01T13:46:39;97314.47;;;8.92;42.16